sensor_id;sensor_type;location;lat;lon;timestamp;pressure;altitude;pressure_sealevel;temperature;humidity
4123;BME280;2075;51.062;6.920;2023-03-31T00:00:22;84367.34;;;-144.48;100.00
4123;BME280;2075;51.062;6.920;2023-03-31T00:03:07;86551.91;;;-144.48;100.00
4123;BME280;2075;51.062;6.920;2023-03-31T00:05:54;85581.03;;;-144.48;100.00
4123;BME280;2075;51.062;6.920;2023-03-31T00:08:41;78707.72;;;-144.48;100.00
4123;BME280;2075;51.062;6.920;2023-03-31T00:11:27;77120.41;;;-144.48;100.00
4123;BME280;2075;51.062;6.920;2023-03-31T00:14:12;78582.31;;;-144.48;100.00
4123;BME280;2075;51.062;6.920;2023-03-31T00:17:00;72948.38;;;-144.48;100.00
4123;BME280;2075;51.062;6.920;2023-03-31T00:19:47;73087.69;;;-144.48;100.00
4123;BME280;2075;51.062;6.920;2023-03-31T00:22:33;66096.25;;;-144.48;100.00
4123;BME280;2075;51.062;6.920;2023-03-31T00:25:21;57595.16;;;-144.48;100.00
4123;BME280;2075;51.062;6.920;2023-03-31T00:28:06;45524.19;;;-144.48;100.00
4123;BME280;2075;51.062;6.920;2023-03-31T00:30:52;39376.91;;;-144.48;100.00
4123;BME280;2075;51.062;6.920;2023-03-31T00:33:39;37074.59;;;-144.48;100.00
4123;BME280;2075;51.062;6.920;2023-03-31T00:36:25;33496.31;;;-144.48;100.00
4123;BME280;2075;51.062;6.920;2023-03-31T00:39:16;28136.09;;;-144.48;100.00
4123;BME280;2075;51.062;6.920;2023-03-31T00:42:02;24822.16;;;-144.48;100.00
4123;BME280;2075;51.062;6.920;2023-03-31T00:45:20;21002.47;;;-144.48;100.00
4123;BME280;2075;51.062;6.920;2023-03-31T00:48:10;14900.13;;;-144.48;100.00
4123;BME280;2075;51.062;6.920;2023-03-31T00:51:03;13884.19;;;-144.48;100.00
4123;BME280;2075;51.062;6.920;2023-03-31T00:53:53;11599.41;;;-144.48;100.00
4123;BME280;2075;51.062;6.920;2023-03-31T00:56:43;11345.63;;;-144.48;100.00
4123;BME280;2075;51.062;6.920;2023-03-31T00:59:34;10330.75;;;-144.48;100.00
4123;BME280;2075;51.062;6.920;2023-03-31T01:02:21;7541.47;;;-144.48;100.00
4123;BME280;2075;51.062;6.920;2023-03-31T01:05:08;8555.47;;;-144.48;100.00
4123;BME280;2075;51.062;6.920;2023-03-31T01:07:56;8555.47;;;-144.48;100.00
4123;BME280;2075;51.062;6.920;2023-03-31T01:10:46;8301.94;;;-144.48;100.00
4123;BME280;2075;51.062;6.920;2023-03-31T01:13:33;7288.00;;;-144.48;100.00
4123;BME280;2075;51.062;6.920;2023-03-31T01:16:20;6274.38;;;-144.48;100.00
4123;BME280;2075;51.062;6.920;2023-03-31T01:19:11;5261.06;;;-144.48;100.00
4123;BME280;2075;51.062;6.920;2023-03-31T01:28:53;4754.53;;;-144.48;100.00
4123;BME280;2075;51.062;6.920;2023-03-31T01:32:21;4248.06;;;-144.48;100.00
4123;BME280;2075;51.062;6.920;2023-03-31T01:35:33;2982.25;;;-144.48;100.00
4123;BME280;2075;51.062;6.920;2023-03-31T01:38:46;3488.53;;;-144.48;100.00
4123;BME280;2075;51.062;6.920;2023-03-31T01:41:46;3994.88;;;-144.48;100.00
4123;BME280;2075;51.062;6.920;2023-03-31T01:44:40;3488.53;;;-144.48;100.00
4123;BME280;2075;51.062;6.920;2023-03-31T01:47:31;2223.00;;;-144.48;100.00
4123;BME280;2075;51.062;6.920;2023-03-31T01:50:25;2729.16;;;-144.48;100.00
4123;BME280;2075;51.062;6.920;2023-03-31T01:53:17;4248.06;;;-144.48;100.00
4123;BME280;2075;51.062;6.920;2023-03-31T01:56:07;3994.88;;;-144.48;100.00
4123;BME280;2075;51.062;6.920;2023-03-31T01:58:59;4501.28;;;-144.48;100.00
4123;BME280;2075;51.062;6.920;2023-03-31T02:01:50;6021.03;;;-144.48;100.00
4123;BME280;2075;51.062;6.920;2023-03-31T02:04:40;5767.69;;;-144.48;100.00
4123;BME280;2075;51.062;6.920;2023-03-31T02:07:31;5007.78;;;-144.48;100.00
4123;BME280;2075;51.062;6.920;2023-03-31T02:10:20;3488.53;;;-144.48;100.00
4123;BME280;2075;51.062;6.920;2023-03-31T02:13:07;3488.53;;;-144.48;100.00
4123;BME280;2075;51.062;6.920;2023-03-31T02:16:04;3741.69;;;-144.48;100.00
4123;BME280;2075;51.062;6.920;2023-03-31T02:18:54;1463.94;;;-144.48;100.00
4123;BME280;2075;51.062;6.920;2023-03-31T02:21:46;-812.25;;;-144.48;100.00
4123;BME280;2075;51.062;6.920;2023-03-31T02:24:34;199.19;;;-144.48;100.00
4123;BME280;2075;51.062;6.920;2023-03-31T02:27:23;957.97;;;-144.48;100.00
4123;BME280;2075;51.062;6.920;2023-03-31T02:30:11;1969.97;;;-144.48;100.00
4123;BME280;2075;51.062;6.920;2023-03-31T02:32:59;957.97;;;-144.48;100.00
4123;BME280;2075;51.062;6.920;2023-03-31T02:35:44;452.09;;;-144.48;100.00
4123;BME280;2075;51.062;6.920;2023-03-31T02:38:31;-1065.06;;;-144.48;100.00
4123;BME280;2075;51.062;6.920;2023-03-31T02:41:18;-2581.53;;;-144.48;100.00
4123;BME280;2075;51.062;6.920;2023-03-31T02:44:04;-2328.84;;;-144.48;100.00
4123;BME280;2075;51.062;6.920;2023-03-31T02:46:49;-1570.63;;;-144.48;100.00
4123;BME280;2075;51.062;6.920;2023-03-31T02:49:38;-2328.84;;;-144.48;100.00
4123;BME280;2075;51.062;6.920;2023-03-31T02:52:49;-2328.84;;;-144.48;100.00
4123;BME280;2075;51.062;6.920;2023-03-31T02:55:47;-2834.19;;;-144.48;100.00
4123;BME280;2075;51.062;6.920;2023-03-31T02:58:51;-2328.84;;;-144.48;100.00
4123;BME280;2075;51.062;6.920;2023-03-31T03:01:58;-1823.38;;;-144.48;100.00
4123;BME280;2075;51.062;6.920;2023-03-31T03:05:03;-1065.06;;;-144.48;100.00
4123;BME280;2075;51.062;6.920;2023-03-31T03:08:05;-812.25;;;-144.48;100.00
4123;BME280;2075;51.062;6.920;2023-03-31T03:11:01;-1823.38;;;-144.48;100.00
4123;BME280;2075;51.062;6.920;2023-03-31T03:13:54;-2834.19;;;-144.48;100.00
4123;BME280;2075;51.062;6.920;2023-03-31T03:16:43;-2076.13;;;-144.48;100.00
4123;BME280;2075;51.062;6.920;2023-03-31T03:19:30;-2581.53;;;-144.48;100.00
4123;BME280;2075;51.062;6.920;2023-03-31T03:22:17;-2834.19;;;-144.48;100.00
4123;BME280;2075;51.062;6.920;2023-03-31T03:25:03;-2328.84;;;-144.48;100.00
4123;BME280;2075;51.062;6.920;2023-03-31T03:27:48;-3339.50;;;-144.48;100.00
4123;BME280;2075;51.062;6.920;2023-03-31T03:30:36;-3592.09;;;-144.48;100.00
4123;BME280;2075;51.062;6.920;2023-03-31T03:33:22;-4097.28;;;-144.48;100.00
4123;BME280;2075;51.062;6.920;2023-03-31T03:36:08;-4854.91;;;-144.48;100.00
4123;BME280;2075;51.062;6.920;2023-03-31T03:38:55;-5107.41;;;-144.48;100.00
4123;BME280;2075;51.062;6.920;2023-03-31T03:41:40;-5864.78;;;-144.48;100.00
4123;BME280;2075;51.062;6.920;2023-03-31T03:44:26;-6621.97;;;-144.48;100.00
4123;BME280;2075;51.062;6.920;2023-03-31T03:47:11;-7126.69;;;-144.48;100.00
4123;BME280;2075;51.062;6.920;2023-03-31T03:49:57;-7883.59;;;-144.48;100.00
4123;BME280;2075;51.062;6.920;2023-03-31T03:52:42;-7883.59;;;-144.48;100.00
4123;BME280;2075;51.062;6.920;2023-03-31T03:55:29;-6621.97;;;-144.48;100.00
4123;BME280;2075;51.062;6.920;2023-03-31T03:58:15;-6369.59;;;-144.48;100.00
4123;BME280;2075;51.062;6.920;2023-03-31T04:01:03;-5864.78;;;-144.48;100.00
4123;BME280;2075;51.062;6.920;2023-03-31T04:03:50;-3844.69;;;-144.48;100.00
4123;BME280;2075;51.062;6.920;2023-03-31T04:06:36;-1823.38;;;-144.48;100.00
4123;BME280;2075;51.062;6.920;2023-03-31T04:09:21;452.09;;;-144.48;100.00
4123;BME280;2075;51.062;6.920;2023-03-31T04:12:08;3488.53;;;-144.48;100.00
4123;BME280;2075;51.062;6.920;2023-03-31T04:14:53;7288.00;;;-144.48;100.00
4123;BME280;2075;51.062;6.920;2023-03-31T04:17:39;10330.75;;;-144.48;100.00
4123;BME280;2075;51.062;6.920;2023-03-31T04:20:24;12360.81;;;-144.48;100.00
4123;BME280;2075;51.062;6.920;2023-03-31T04:23:10;14646.13;;;-144.48;100.00
4123;BME280;2075;51.062;6.920;2023-03-31T04:25:58;23548.44;;;-144.48;100.00
4123;BME280;2075;51.062;6.920;2023-03-31T04:28:45;19984.66;;;-144.48;100.00
4123;BME280;2075;51.062;6.920;2023-03-31T04:31:33;23293.75;;;-144.48;100.00
4123;BME280;2075;51.062;6.920;2023-03-31T04:34:21;26096.34;;;-144.48;100.00
4123;BME280;2075;51.062;6.920;2023-03-31T04:37:09;29411.56;;;-144.48;100.00
4123;BME280;2075;51.062;6.920;2023-03-31T04:39:54;32730.03;;;-144.48;100.00
4123;BME280;2075;51.062;6.920;2023-03-31T04:42:40;36051.84;;;-144.48;100.00
4123;BME280;2075;51.062;6.920;2023-03-31T04:45:27;33496.31;;;-144.48;100.00
4123;BME280;2075;51.062;6.920;2023-03-31T04:48:12;32219.28;;;-144.48;100.00
4123;BME280;2075;51.062;6.920;2023-03-31T04:50:57;23548.44;;;-144.48;100.00
4123;BME280;2075;51.062;6.920;2023-03-31T04:53:43;18967.13;;;-144.48;100.00
4123;BME280;2075;51.062;6.920;2023-03-31T04:56:28;14646.13;;;-144.48;100.00
4123;BME280;2075;51.062;6.920;2023-03-31T04:59:14;12614.66;;;-144.48;100.00
4123;BME280;2075;51.062;6.920;2023-03-31T05:02:00;9569.81;;;-144.48;100.00
4123;BME280;2075;51.062;6.920;2023-03-31T05:04:46;9823.44;;;-144.48;100.00
4123;BME280;2075;51.062;6.920;2023-03-31T05:07:31;9316.19;;;-144.48;100.00
4123;BME280;2075;51.062;6.920;2023-03-31T05:10:16;10584.44;;;-144.48;100.00
4123;BME280;2075;51.062;6.920;2023-03-31T05:13:02;9823.44;;;-144.48;100.00
4123;BME280;2075;51.062;6.920;2023-03-31T05:15:47;12107.00;;;-144.48;100.00
4123;BME280;2075;51.062;6.920;2023-03-31T05:18:36;14138.13;;;-144.48;100.00
4123;BME280;2075;51.062;6.920;2023-03-31T05:21:22;18967.13;;;-144.48;100.00
4123;BME280;2075;51.062;6.920;2023-03-31T05:24:07;23039.09;;;-144.48;100.00
4123;BME280;2075;51.062;6.920;2023-03-31T05:26:53;31963.94;;;-144.48;100.00
4123;BME280;2075;51.062;6.920;2023-03-31T05:29:38;32730.03;;;-144.48;100.00
4123;BME280;2075;51.062;6.920;2023-03-31T05:32:25;32985.44;;;-144.48;100.00
4123;BME280;2075;51.062;6.920;2023-03-31T05:35:12;34773.81;;;-144.48;100.00
4123;BME280;2075;51.062;6.920;2023-03-31T05:37:57;38097.66;;;-144.48;100.00
4123;BME280;2075;51.062;6.920;2023-03-31T05:40:42;40912.69;;;-144.48;100.00
4123;BME280;2075;51.062;6.920;2023-03-31T05:43:28;40400.69;;;-144.48;100.00
4123;BME280;2075;51.062;6.920;2023-03-31T05:46:13;39376.91;;;-144.48;100.00
4123;BME280;2075;51.062;6.920;2023-03-31T05:48:59;42193.03;;;-144.48;100.00
4123;BME280;2075;51.062;6.920;2023-03-31T05:51:46;43986.31;;;-144.48;100.00
4123;BME280;2075;51.062;6.920;2023-03-31T05:54:32;45267.84;;;-144.48;100.00
4123;BME280;2075;51.062;6.920;2023-03-31T05:57:17;44498.88;;;-144.48;100.00
4123;BME280;2075;51.062;6.920;2023-03-31T06:00:03;43473.84;;;-144.48;100.00
4123;BME280;2075;51.062;6.920;2023-03-31T06:02:52;38097.66;;;-144.48;100.00
4123;BME280;2075;51.062;6.920;2023-03-31T06:05:37;35284.97;;;-144.48;100.00
4123;BME280;2075;51.062;6.920;2023-03-31T06:08:26;35540.56;;;-144.48;100.00
4123;BME280;2075;51.062;6.920;2023-03-31T06:11:13;29666.69;;;-144.48;100.00
4123;BME280;2075;51.062;6.920;2023-03-31T06:13:59;27881.03;;;-144.48;100.00
4123;BME280;2075;51.062;6.920;2023-03-31T06:16:44;30177.06;;;-144.48;100.00
4123;BME280;2075;51.062;6.920;2023-03-31T06:19:30;30177.06;;;-144.48;100.00
4123;BME280;2075;51.062;6.920;2023-03-31T06:22:16;28646.22;;;-144.48;100.00
4123;BME280;2075;51.062;6.920;2023-03-31T06:25:03;29156.41;;;-144.48;100.00
4123;BME280;2075;51.062;6.920;2023-03-31T06:27:49;32730.03;;;-144.48;100.00
4123;BME280;2075;51.062;6.920;2023-03-31T06:30:34;30687.50;;;-144.48;100.00
4123;BME280;2075;51.062;6.920;2023-03-31T06:33:20;27626.03;;;-144.48;100.00
4123;BME280;2075;51.062;6.920;2023-03-31T06:36:07;35284.97;;;-144.48;100.00
4123;BME280;2075;51.062;6.920;2023-03-31T06:38:52;28901.31;;;-144.48;100.00
4123;BME280;2075;51.062;6.920;2023-03-31T06:41:39;29666.69;;;-144.48;100.00
4123;BME280;2075;51.062;6.920;2023-03-31T06:44:24;37330.31;;;-144.48;100.00
4123;BME280;2075;51.062;6.920;2023-03-31T06:47:09;39376.91;;;-144.48;100.00
4123;BME280;2075;51.062;6.920;2023-03-31T06:49:55;35029.38;;;-144.48;100.00
4123;BME280;2075;51.062;6.920;2023-03-31T06:52:40;28646.22;;;-144.48;100.00
4123;BME280;2075;51.062;6.920;2023-03-31T06:55:26;30687.50;;;-144.48;100.00
4123;BME280;2075;51.062;6.920;2023-03-31T06:58:13;28136.09;;;-144.48;100.00
4123;BME280;2075;51.062;6.920;2023-03-31T07:01:01;30687.50;;;-144.48;100.00
4123;BME280;2075;51.062;6.920;2023-03-31T07:03:46;35540.56;;;-144.48;100.00
4123;BME280;2075;51.062;6.920;2023-03-31T07:06:31;42705.31;;;-144.48;100.00
4123;BME280;2075;51.062;6.920;2023-03-31T07:09:17;54252.06;;;-144.48;100.00
4123;BME280;2075;51.062;6.920;2023-03-31T07:12:04;59139.22;;;-144.48;100.00
4123;BME280;2075;51.062;6.920;2023-03-31T07:14:51;69838.31;;;-144.48;100.00
4123;BME280;2075;51.062;6.920;2023-03-31T07:17:36;77830.06;;;-144.48;100.00
4123;BME280;2075;51.062;6.920;2023-03-31T07:20:24;81728.69;;;-144.48;100.00
4123;BME280;2075;51.062;6.920;2023-03-31T07:23:10;82425.09;;;-144.48;100.00
4123;BME280;2075;51.062;6.920;2023-03-31T07:25:56;89236.88;;;-144.48;100.00
4123;BME280;2075;51.062;6.920;2023-03-31T07:28:45;92929.06;;;-144.48;100.00
4123;BME280;2075;51.062;6.920;2023-03-31T07:31:33;92788.94;;;-144.48;100.00
4123;BME280;2075;51.062;6.920;2023-03-31T07:34:18;93511.97;;;-144.48;100.00
4123;BME280;2075;51.062;6.920;2023-03-31T07:37:05;93717.13;;;-144.48;97.63
4123;BME280;2075;51.062;6.920;2023-03-31T07:39:50;93908.09;;;-144.48;93.16
4123;BME280;2075;51.062;6.920;2023-03-31T07:42:36;93887.78;;;-144.48;91.41
4123;BME280;2075;51.062;6.920;2023-03-31T07:45:24;93847.13;;;-144.48;91.10
4123;BME280;2075;51.062;6.920;2023-03-31T07:48:11;93843.06;;;-144.48;85.95
4123;BME280;2075;51.062;6.920;2023-03-31T07:50:56;93451.03;;;-144.48;70.72
4123;BME280;2075;51.062;6.920;2023-03-31T07:53:48;92862.03;;;-144.48;45.84
4123;BME280;2075;51.062;6.920;2023-03-31T07:56:35;92847.81;;;-144.48;43.14
4123;BME280;2075;51.062;6.920;2023-03-31T07:59:21;92801.13;;;-144.48;42.53
4123;BME280;2075;51.062;6.920;2023-03-31T08:02:06;92709.75;;;-144.48;40.63
4123;BME280;2075;51.062;6.920;2023-03-31T08:04:53;93103.72;;;-144.48;45.19
4123;BME280;2075;51.062;6.920;2023-03-31T08:07:41;93619.63;;;-144.48;56.52
4123;BME280;2075;51.062;6.920;2023-03-31T08:10:27;93790.25;;;-144.48;66.08
4123;BME280;2075;51.062;6.920;2023-03-31T08:13:13;93843.06;;;-144.48;69.30
4123;BME280;2075;51.062;6.920;2023-03-31T08:15:58;93932.47;;;-144.48;75.25
4123;BME280;2075;51.062;6.920;2023-03-31T08:18:43;93873.56;;;-144.48;75.27
4123;BME280;2075;51.062;6.920;2023-03-31T08:21:30;93849.16;;;-144.48;72.44
4123;BME280;2075;51.062;6.920;2023-03-31T08:24:16;93936.53;;;-144.48;76.53
4123;BME280;2075;51.062;6.920;2023-03-31T08:27:01;93958.88;;;-144.48;79.41
4123;BME280;2075;51.062;6.920;2023-03-31T08:29:47;93952.78;;;-144.48;79.13
4123;BME280;2075;51.062;6.920;2023-03-31T08:32:34;93899.97;;;-144.48;77.52
4123;BME280;2075;51.062;6.920;2023-03-31T08:35:19;93897.94;;;-144.48;76.70
4123;BME280;2075;51.062;6.920;2023-03-31T08:38:06;93904.03;;;-144.48;76.81
4123;BME280;2075;51.062;6.920;2023-03-31T08:40:58;93942.63;;;-144.48;77.53
4123;BME280;2075;51.062;6.920;2023-03-31T08:43:45;93940.59;;;-144.48;78.40
4123;BME280;2075;51.062;6.920;2023-03-31T08:46:33;93987.31;;;-144.48;80.50
4123;BME280;2075;51.062;6.920;2023-03-31T08:49:20;93956.84;;;-144.48;80.89
4123;BME280;2075;51.062;6.920;2023-03-31T08:52:11;93920.28;;;-144.48;78.70
4123;BME280;2075;51.062;6.920;2023-03-31T08:55:04;93936.53;;;-144.48;73.46
4123;BME280;2075;51.062;6.920;2023-03-31T08:57:56;93845.09;;;-144.48;71.09
4123;BME280;2075;51.062;6.920;2023-03-31T09:00:48;93802.44;;;-144.48;67.67
4123;BME280;2075;51.062;6.920;2023-03-31T09:03:42;93650.09;;;-144.48;65.05
4123;BME280;2075;51.062;6.920;2023-03-31T09:06:35;93587.13;;;-144.48;61.22
4123;BME280;2075;51.062;6.920;2023-03-31T09:09:27;93591.19;;;-144.48;60.32
4123;BME280;2075;51.062;6.920;2023-03-31T09:12:21;93562.75;;;-144.48;57.72
4123;BME280;2075;51.062;6.920;2023-03-31T09:15:10;93473.38;;;-144.48;54.88
4123;BME280;2075;51.062;6.920;2023-03-31T09:18:01;93509.94;;;-144.48;55.54
4123;BME280;2075;51.062;6.920;2023-03-31T09:20:50;93554.63;;;-144.48;56.88
4123;BME280;2075;51.062;6.920;2023-03-31T09:23:41;93680.56;;;-144.48;59.80
4123;BME280;2075;51.062;6.920;2023-03-31T09:26:35;93696.81;;;-144.48;62.43
4123;BME280;2075;51.062;6.920;2023-03-31T09:29:29;93619.63;;;-144.48;59.25
4123;BME280;2075;51.062;6.920;2023-03-31T09:32:16;93625.72;;;-144.48;57.62
4123;BME280;2075;51.062;6.920;2023-03-31T09:35:14;93619.63;;;-144.48;56.98
4123;BME280;2075;51.062;6.920;2023-03-31T09:38:01;93684.63;;;-144.48;56.98
4123;BME280;2075;51.062;6.920;2023-03-31T09:40:49;93635.88;;;-144.48;55.59
4123;BME280;2075;51.062;6.920;2023-03-31T09:43:34;93576.97;;;-144.48;54.49
4123;BME280;2075;51.062;6.920;2023-03-31T09:46:27;93621.66;;;-144.48;54.14
4123;BME280;2075;51.062;6.920;2023-03-31T09:49:16;93619.63;;;-144.48;55.36
4123;BME280;2075;51.062;6.920;2023-03-31T09:52:05;93611.50;;;-144.48;55.74
4123;BME280;2075;51.062;6.920;2023-03-31T09:54:57;93493.69;;;-144.48;54.21
4123;BME280;2075;51.062;6.920;2023-03-31T09:57:44;93511.97;;;-144.48;54.63
4123;BME280;2075;51.062;6.920;2023-03-31T10:00:32;93491.66;;;-144.48;53.46
4123;BME280;2075;51.062;6.920;2023-03-31T10:03:19;93430.72;;;-144.48;50.32
4123;BME280;2075;51.062;6.920;2023-03-31T10:06:08;93461.19;;;-144.48;51.11
4123;BME280;2075;51.062;6.920;2023-03-31T10:08:58;93516.03;;;-144.48;51.17
4123;BME280;2075;51.062;6.920;2023-03-31T10:11:54;93572.91;;;-144.48;51.90
4123;BME280;2075;51.062;6.920;2023-03-31T10:14:44;93534.31;;;-144.48;51.93
4123;BME280;2075;51.062;6.920;2023-03-31T10:17:33;93530.25;;;-144.48;51.65
4123;BME280;2075;51.062;6.920;2023-03-31T10:20:30;93568.84;;;-144.48;52.35
4123;BME280;2075;51.062;6.920;2023-03-31T10:23:22;93583.06;;;-144.48;53.41
4123;BME280;2075;51.062;6.920;2023-03-31T10:26:14;93558.69;;;-144.48;53.66
4123;BME280;2075;51.062;6.920;2023-03-31T10:29:01;93558.69;;;-144.48;52.69
4123;BME280;2075;51.062;6.920;2023-03-31T10:31:54;93390.09;;;-144.48;51.94
4123;BME280;2075;51.062;6.920;2023-03-31T10:34:41;93325.09;;;-144.48;49.11
4123;BME280;2075;51.062;6.920;2023-03-31T10:37:32;93455.09;;;-144.48;49.30
4123;BME280;2075;51.062;6.920;2023-03-31T10:40:27;93424.63;;;-144.48;47.40
4123;BME280;2075;51.062;6.920;2023-03-31T10:43:18;93365.72;;;-144.48;46.98
4123;BME280;2075;51.062;6.920;2023-03-31T10:46:06;93369.78;;;-144.48;48.10
4123;BME280;2075;51.062;6.920;2023-03-31T10:48:52;93518.06;;;-144.48;48.17
4123;BME280;2075;51.062;6.920;2023-03-31T10:51:48;93489.63;;;-144.48;48.56
4123;BME280;2075;51.062;6.920;2023-03-31T10:54:34;93546.50;;;-144.48;48.99
4123;BME280;2075;51.062;6.920;2023-03-31T10:57:29;93599.31;;;-144.48;51.86
4123;BME280;2075;51.062;6.920;2023-03-31T11:00:27;93725.25;;;-144.48;67.67
4123;BME280;2075;51.062;6.920;2023-03-31T11:03:41;93914.19;;;-144.48;86.21
4123;BME280;2075;51.062;6.920;2023-03-31T11:06:37;93765.88;;;-144.48;95.92
4123;BME280;2075;51.062;6.920;2023-03-31T11:09:43;83152.06;;;-144.48;100.00
4123;BME280;2075;51.062;6.920;2023-03-31T11:12:44;41168.72;;;-144.48;100.00
4123;BME280;2075;51.062;6.920;2023-03-31T11:15:44;23039.09;;;-144.48;100.00
4123;BME280;2075;51.062;6.920;2023-03-31T11:18:47;15916.41;;;-144.48;100.00
4123;BME280;2075;51.062;6.920;2023-03-31T11:21:50;18458.47;;;-144.48;100.00
4123;BME280;2075;51.062;6.920;2023-03-31T11:25:08;17441.41;;;-144.48;100.00
4123;BME280;2075;51.062;6.920;2023-03-31T11:28:22;22020.63;;;-144.48;100.00
4123;BME280;2075;51.062;6.920;2023-03-31T11:31:19;22529.81;;;-144.48;100.00
4123;BME280;2075;51.062;6.920;2023-03-31T11:34:40;39121.03;;;-144.48;100.00
4123;BME280;2075;51.062;6.920;2023-03-31T11:37:46;84361.28;;;-144.48;100.00
4123;BME280;2075;51.062;6.920;2023-03-31T11:40:48;93477.44;;;-144.48;97.22
4123;BME280;2075;51.062;6.920;2023-03-31T11:43:42;93704.94;;;-144.48;90.85
4123;BME280;2075;51.062;6.920;2023-03-31T11:46:36;93704.94;;;-144.48;86.60
4123;BME280;2075;51.062;6.920;2023-03-31T11:49:27;93650.09;;;-144.48;83.73
4123;BME280;2075;51.062;6.920;2023-03-31T11:52:25;93723.22;;;-144.48;83.22
4123;BME280;2075;51.062;6.920;2023-03-31T11:55:15;93688.69;;;-144.48;82.54
4123;BME280;2075;51.062;6.920;2023-03-31T11:58:06;93692.75;;;-144.48;81.38
4123;BME280;2075;51.062;6.920;2023-03-31T12:00:56;93709.00;;;-144.48;81.16
4123;BME280;2075;51.062;6.920;2023-03-31T12:03:52;93684.63;;;-144.48;80.50
4123;BME280;2075;51.062;6.920;2023-03-31T12:06:41;93702.91;;;-144.48;80.70
4123;BME280;2075;51.062;6.920;2023-03-31T12:09:39;93654.16;;;-144.48;78.76
4123;BME280;2075;51.062;6.920;2023-03-31T12:12:32;93631.81;;;-144.48;75.97
4123;BME280;2075;51.062;6.920;2023-03-31T12:15:23;93609.47;;;-144.48;78.54
4123;BME280;2075;51.062;6.920;2023-03-31T12:18:13;93731.34;;;-144.48;81.04
4123;BME280;2075;51.062;6.920;2023-03-31T12:21:05;93635.88;;;-144.48;82.38
4123;BME280;2075;51.062;6.920;2023-03-31T12:23:54;93702.91;;;-144.48;80.68
4123;BME280;2075;51.062;6.920;2023-03-31T12:26:45;93666.34;;;-144.48;81.94
4123;BME280;2075;51.062;6.920;2023-03-31T12:29:42;93698.84;;;-144.48;83.36
4123;BME280;2075;51.062;6.920;2023-03-31T12:32:33;93802.44;;;-144.48;82.02
4123;BME280;2075;51.062;6.920;2023-03-31T12:35:23;93739.47;;;-144.48;82.42
4123;BME280;2075;51.062;6.920;2023-03-31T12:38:30;93794.31;;;-144.48;81.76
4123;BME280;2075;51.062;6.920;2023-03-31T12:41:25;93863.41;;;-144.48;87.47
4123;BME280;2075;51.062;6.920;2023-03-31T12:44:26;93814.63;;;-144.48;92.12
4123;BME280;2075;51.062;6.920;2023-03-31T12:47:38;93755.72;;;-144.48;90.17
4123;BME280;2075;51.062;6.920;2023-03-31T12:50:40;93696.81;;;-144.48;87.53
4123;BME280;2075;51.062;6.920;2023-03-31T12:53:34;93717.13;;;-144.48;82.14
4123;BME280;2075;51.062;6.920;2023-03-31T12:56:23;93664.31;;;-144.48;80.92
4123;BME280;2075;51.062;6.920;2023-03-31T12:59:27;93782.13;;;-144.48;79.83
4123;BME280;2075;51.062;6.920;2023-03-31T13:02:21;93672.44;;;-144.48;78.16
4123;BME280;2075;51.062;6.920;2023-03-31T13:05:45;93660.25;;;-144.48;77.25
4123;BME280;2075;51.062;6.920;2023-03-31T13:08:49;93761.81;;;-144.48;78.71
4123;BME280;2075;51.062;6.920;2023-03-31T13:11:37;93706.97;;;-144.48;79.71
4123;BME280;2075;51.062;6.920;2023-03-31T13:14:26;93784.16;;;-144.48;81.93
4123;BME280;2075;51.062;6.920;2023-03-31T13:17:28;93725.25;;;-144.48;79.83
4123;BME280;2075;51.062;6.920;2023-03-31T13:20:25;93692.75;;;-144.48;79.45
4123;BME280;2075;51.062;6.920;2023-03-31T13:23:19;93757.75;;;-144.48;71.30
4123;BME280;2075;51.062;6.920;2023-03-31T13:26:34;93761.81;;;-144.48;68.97
4123;BME280;2075;51.062;6.920;2023-03-31T13:29:24;93778.06;;;-144.48;71.83
4123;BME280;2075;51.062;6.920;2023-03-31T13:32:28;93690.72;;;-144.48;73.94
4123;BME280;2075;51.062;6.920;2023-03-31T13:35:16;93755.72;;;-144.48;68.98
4123;BME280;2075;51.062;6.920;2023-03-31T13:38:13;93652.13;;;-144.48;69.94
4123;BME280;2075;51.062;6.920;2023-03-31T13:41:09;93692.75;;;-144.48;66.95
4123;BME280;2075;51.062;6.920;2023-03-31T13:44:42;93656.19;;;-144.48;66.86
4123;BME280;2075;51.062;6.920;2023-03-31T13:48:01;93676.50;;;-144.48;64.19
4123;BME280;2075;51.062;6.920;2023-03-31T13:51:22;93702.91;;;-144.48;63.22
4123;BME280;2075;51.062;6.920;2023-03-31T13:54:34;93735.41;;;-144.48;66.78
4123;BME280;2075;51.062;6.920;2023-03-31T13:57:57;93763.84;;;-144.48;70.43
4123;BME280;2075;51.062;6.920;2023-03-31T14:00:59;93617.59;;;-144.48;66.64
4123;BME280;2075;51.062;6.920;2023-03-31T14:04:00;93713.06;;;-144.48;63.44
4123;BME280;2075;51.062;6.920;2023-03-31T14:06:56;93644.00;;;-144.48;61.27
4123;BME280;2075;51.062;6.920;2023-03-31T14:09:45;93609.47;;;-144.48;57.65
4123;BME280;2075;51.062;6.920;2023-03-31T14:12:44;93619.63;;;-144.48;55.01
4123;BME280;2075;51.062;6.920;2023-03-31T14:15:32;93757.75;;;-144.48;55.69
4123;BME280;2075;51.062;6.920;2023-03-31T14:18:27;93692.75;;;-144.48;54.97
4123;BME280;2075;51.062;6.920;2023-03-31T14:21:19;93465.25;;;-144.48;55.38
4123;BME280;2075;51.062;6.920;2023-03-31T14:24:15;93544.47;;;-144.48;56.98
4123;BME280;2075;51.062;6.920;2023-03-31T14:27:12;93713.06;;;-144.48;57.44
4123;BME280;2075;51.062;6.920;2023-03-31T14:30:17;93769.94;;;-144.48;55.28
4123;BME280;2075;51.062;6.920;2023-03-31T14:33:27;93690.72;;;-144.48;55.55
4123;BME280;2075;51.062;6.920;2023-03-31T14:36:21;93792.28;;;-144.48;55.96
4123;BME280;2075;51.062;6.920;2023-03-31T14:39:20;93999.50;;;-144.48;58.38
4123;BME280;2075;51.062;6.920;2023-03-31T14:42:10;93727.28;;;-144.48;55.85
4123;BME280;2075;51.062;6.920;2023-03-31T14:45:02;93662.28;;;-144.48;55.54
4123;BME280;2075;51.062;6.920;2023-03-31T14:47:57;93704.94;;;-144.48;56.82
4123;BME280;2075;51.062;6.920;2023-03-31T14:50:45;93733.38;;;-144.48;56.64
4123;BME280;2075;51.062;6.920;2023-03-31T14:53:31;93767.91;;;-144.48;56.27
4123;BME280;2075;51.062;6.920;2023-03-31T14:56:25;93800.41;;;-144.48;57.77
4123;BME280;2075;51.062;6.920;2023-03-31T14:59:21;93847.13;;;-144.48;57.67
4123;BME280;2075;51.062;6.920;2023-03-31T15:02:15;93843.06;;;-144.48;57.18
4123;BME280;2075;51.062;6.920;2023-03-31T15:05:07;93944.66;;;-144.48;57.19
4123;BME280;2075;51.062;6.920;2023-03-31T15:07:58;93855.25;;;-144.48;59.03